sensor_id;sensor_type;location;lat;lon;timestamp;pressure;altitude;pressure_sealevel;temperature;humidity
62847;BME280;49477;35.676;139.586;2023-03-31T00:00:27;101491.05;;;20.54;41.43
62847;BME280;49477;35.676;139.586;2023-03-31T00:02:57;101490.36;;;20.72;41.10
62847;BME280;49477;35.676;139.586;2023-03-31T00:05:27;101489.95;;;20.90;40.72
62847;BME280;49477;35.676;139.586;2023-03-31T00:07:57;101489.95;;;21.05;40.30
62847;BME280;49477;35.676;139.586;2023-03-31T00:10:27;101490.60;;;21.21;40.06
62847;BME280;49477;35.676;139.586;2023-03-31T00:12:56;101485.55;;;21.05;39.83
62847;BME280;49477;35.676;139.586;2023-03-31T00:15:26;101490.78;;;21.42;39.65
62847;BME280;49477;35.676;139.586;2023-03-31T00:17:57;101493.16;;;21.28;39.44
62847;BME280;49477;35.676;139.586;2023-03-31T00:20:25;101492.70;;;21.38;39.34
62847;BME280;49477;35.676;139.586;2023-03-31T00:22:55;101489.88;;;21.48;39.22
62847;BME280;49477;35.676;139.586;2023-03-31T00:25:24;101486.94;;;21.57;39.13
62847;BME280;49477;35.676;139.586;2023-03-31T00:27:54;101481.48;;;21.68;38.84
62847;BME280;49477;35.676;139.586;2023-03-31T00:30:23;101480.49;;;21.56;38.77
62847;BME280;49477;35.676;139.586;2023-03-31T00:32:52;101480.35;;;21.70;38.43
62847;BME280;49477;35.676;139.586;2023-03-31T00:35:21;101481.42;;;21.57;38.47
62847;BME280;49477;35.676;139.586;2023-03-31T00:37:51;101480.79;;;22.06;38.29
62847;BME280;49477;35.676;139.586;2023-03-31T00:40:20;101479.14;;;21.69;38.35
62847;BME280;49477;35.676;139.586;2023-03-31T00:42:49;101473.43;;;22.01;37.98
62847;BME280;49477;35.676;139.586;2023-03-31T00:45:26;101470.54;;;22.30;37.92
62847;BME280;49477;35.676;139.586;2023-03-31T00:48:02;101470.02;;;22.15;37.93
62847;BME280;49477;35.676;139.586;2023-03-31T00:50:36;101470.00;;;22.00;37.86
62847;BME280;49477;35.676;139.586;2023-03-31T00:53:11;101469.61;;;21.99;37.83
62847;BME280;49477;35.676;139.586;2023-03-31T00:55:43;101474.66;;;22.02;37.81
62847;BME280;49477;35.676;139.586;2023-03-31T00:58:14;101472.24;;;22.01;37.81
62847;BME280;49477;35.676;139.586;2023-03-31T01:00:43;101469.05;;;22.04;37.72
62847;BME280;49477;35.676;139.586;2023-03-31T01:03:13;101466.59;;;22.06;37.70
62847;BME280;49477;35.676;139.586;2023-03-31T01:05:46;101465.33;;;22.11;37.60
62847;BME280;49477;35.676;139.586;2023-03-31T01:08:18;101460.73;;;22.12;37.62
62847;BME280;49477;35.676;139.586;2023-03-31T01:10:53;101454.82;;;22.17;37.59
62847;BME280;49477;35.676;139.586;2023-03-31T01:13:23;101449.52;;;22.21;37.54
62847;BME280;49477;35.676;139.586;2023-03-31T01:15:53;101442.48;;;22.29;37.47
62847;BME280;49477;35.676;139.586;2023-03-31T01:18:23;101439.65;;;22.34;37.47
62847;BME280;49477;35.676;139.586;2023-03-31T01:21:23;101434.31;;;22.36;37.67
62847;BME280;49477;35.676;139.586;2023-03-31T01:26:55;101428.99;;;22.79;37.96
62847;BME280;49477;35.676;139.586;2023-03-31T01:30:01;101422.22;;;22.38;37.84
62847;BME280;49477;35.676;139.586;2023-03-31T01:32:54;101417.95;;;22.69;37.71
62847;BME280;49477;35.676;139.586;2023-03-31T01:37:00;101416.83;;;22.74;37.94
62847;BME280;49477;35.676;139.586;2023-03-31T01:40:00;101415.18;;;22.61;37.68
62847;BME280;49477;35.676;139.586;2023-03-31T01:42:35;101411.71;;;22.61;37.69
62847;BME280;49477;35.676;139.586;2023-03-31T01:45:14;101405.46;;;22.60;37.63
62847;BME280;49477;35.676;139.586;2023-03-31T01:47:52;101404.59;;;22.87;37.67
62847;BME280;49477;35.676;139.586;2023-03-31T01:50:29;101400.47;;;22.63;37.74
62847;BME280;49477;35.676;139.586;2023-03-31T01:53:05;101393.30;;;22.97;37.69
62847;BME280;49477;35.676;139.586;2023-03-31T01:55:41;101383.87;;;23.02;37.58
62847;BME280;49477;35.676;139.586;2023-03-31T01:58:18;101380.09;;;22.75;37.55
62847;BME280;49477;35.676;139.586;2023-03-31T02:00:53;101379.00;;;22.77;37.48
62847;BME280;49477;35.676;139.586;2023-03-31T02:03:29;101368.42;;;22.79;37.48
62847;BME280;49477;35.676;139.586;2023-03-31T02:06:04;101372.09;;;22.65;37.41
62847;BME280;49477;35.676;139.586;2023-03-31T02:08:39;101366.61;;;23.21;37.24
62847;BME280;49477;35.676;139.586;2023-03-31T02:11:10;101363.86;;;22.72;37.14
62847;BME280;49477;35.676;139.586;2023-03-31T02:13:41;101356.21;;;23.20;37.13
62847;BME280;49477;35.676;139.586;2023-03-31T02:16:15;101353.96;;;23.29;37.06
62847;BME280;49477;35.676;139.586;2023-03-31T02:18:47;101355.29;;;23.10;36.96
62847;BME280;49477;35.676;139.586;2023-03-31T02:21:17;101355.37;;;23.05;37.11
62847;BME280;49477;35.676;139.586;2023-03-31T02:23:48;101350.67;;;23.04;37.02
62847;BME280;49477;35.676;139.586;2023-03-31T02:26:22;101350.19;;;23.01;37.03
62847;BME280;49477;35.676;139.586;2023-03-31T02:28:53;101341.96;;;22.84;36.99
62847;BME280;49477;35.676;139.586;2023-03-31T02:31:28;101344.27;;;23.10;36.86
62847;BME280;49477;35.676;139.586;2023-03-31T02:34:01;101341.89;;;22.95;36.82
62847;BME280;49477;35.676;139.586;2023-03-31T02:36:31;101337.09;;;23.25;36.79
62847;BME280;49477;35.676;139.586;2023-03-31T02:39:05;101329.19;;;23.03;36.80
62847;BME280;49477;35.676;139.586;2023-03-31T02:41:36;101328.04;;;23.26;36.84
62847;BME280;49477;35.676;139.586;2023-03-31T02:44:06;101323.58;;;23.12;36.81
62847;BME280;49477;35.676;139.586;2023-03-31T02:46:36;101321.23;;;23.17;36.82
62847;BME280;49477;35.676;139.586;2023-03-31T02:49:07;101323.60;;;23.23;36.81
62847;BME280;49477;35.676;139.586;2023-03-31T02:52:10;101318.68;;;23.53;36.76
62847;BME280;49477;35.676;139.586;2023-03-31T02:55:00;101316.83;;;23.33;36.73
62847;BME280;49477;35.676;139.586;2023-03-31T02:57:51;101314.72;;;23.37;36.68
62847;BME280;49477;35.676;139.586;2023-03-31T03:00:33;101302.73;;;23.40;36.66
62847;BME280;49477;35.676;139.586;2023-03-31T03:03:17;101287.61;;;23.40;36.58
62847;BME280;49477;35.676;139.586;2023-03-31T03:05:57;101285.64;;;23.45;36.49
62847;BME280;49477;35.676;139.586;2023-03-31T03:08:35;101283.91;;;23.48;36.42
62847;BME280;49477;35.676;139.586;2023-03-31T03:11:17;101275.81;;;23.50;36.47
62847;BME280;49477;35.676;139.586;2023-03-31T03:13:51;101273.58;;;23.53;36.47
62847;BME280;49477;35.676;139.586;2023-03-31T03:16:25;101268.39;;;23.55;36.52
62847;BME280;49477;35.676;139.586;2023-03-31T03:18:57;101264.55;;;23.77;36.51
62847;BME280;49477;35.676;139.586;2023-03-31T03:21:28;101265.30;;;23.56;36.53
62847;BME280;49477;35.676;139.586;2023-03-31T03:23:58;101259.09;;;23.62;36.42
62847;BME280;49477;35.676;139.586;2023-03-31T03:26:27;101253.02;;;23.38;36.36
62847;BME280;49477;35.676;139.586;2023-03-31T03:28:57;101246.72;;;23.68;36.28
62847;BME280;49477;35.676;139.586;2023-03-31T03:31:26;101246.66;;;23.68;36.30
62847;BME280;49477;35.676;139.586;2023-03-31T03:33:55;101247.57;;;23.70;36.25
62847;BME280;49477;35.676;139.586;2023-03-31T03:36:25;101251.74;;;23.74;36.30
62847;BME280;49477;35.676;139.586;2023-03-31T03:38:54;101250.26;;;23.72;36.27
62847;BME280;49477;35.676;139.586;2023-03-31T03:41:24;101248.27;;;23.74;36.28
62847;BME280;49477;35.676;139.586;2023-03-31T03:43:53;101252.11;;;23.81;36.25
62847;BME280;49477;35.676;139.586;2023-03-31T03:46:23;101248.16;;;23.84;36.08
62847;BME280;49477;35.676;139.586;2023-03-31T03:48:52;101236.14;;;23.62;36.14
62847;BME280;49477;35.676;139.586;2023-03-31T03:51:22;101233.71;;;23.92;36.09
62847;BME280;49477;35.676;139.586;2023-03-31T03:53:51;101229.63;;;23.94;36.11
62847;BME280;49477;35.676;139.586;2023-03-31T03:56:21;101228.70;;;23.97;36.14
62847;BME280;49477;35.676;139.586;2023-03-31T03:58:50;101223.59;;;24.04;36.03
62847;BME280;49477;35.676;139.586;2023-03-31T04:01:20;101221.38;;;23.91;35.61
62847;BME280;49477;35.676;139.586;2023-03-31T04:03:49;101216.01;;;24.13;35.28
62847;BME280;49477;35.676;139.586;2023-03-31T04:06:19;101216.53;;;23.98;34.86
62847;BME280;49477;35.676;139.586;2023-03-31T04:08:50;101205.56;;;24.24;34.60
62847;BME280;49477;35.676;139.586;2023-03-31T04:11:19;101206.77;;;24.23;34.50
62847;BME280;49477;35.676;139.586;2023-03-31T04:13:49;101202.23;;;24.21;34.61
62847;BME280;49477;35.676;139.586;2023-03-31T04:16:19;101193.49;;;24.21;34.79
62847;BME280;49477;35.676;139.586;2023-03-31T04:18:48;101185.10;;;24.03;34.90
62847;BME280;49477;35.676;139.586;2023-03-31T04:21:23;101188.15;;;23.74;35.08
62847;BME280;49477;35.676;139.586;2023-03-31T04:23:54;101188.06;;;24.25;35.11
62847;BME280;49477;35.676;139.586;2023-03-31T04:26:24;101186.85;;;24.22;35.22
62847;BME280;49477;35.676;139.586;2023-03-31T04:28:54;101186.65;;;23.76;35.23
62847;BME280;49477;35.676;139.586;2023-03-31T04:31:25;101177.79;;;24.29;35.26
62847;BME280;49477;35.676;139.586;2023-03-31T04:33:57;101170.61;;;24.11;35.25
62847;BME280;49477;35.676;139.586;2023-03-31T04:36:28;101171.03;;;24.36;35.36
62847;BME280;49477;35.676;139.586;2023-03-31T04:38:59;101167.01;;;23.91;35.42
62847;BME280;49477;35.676;139.586;2023-03-31T04:41:29;101164.62;;;24.16;35.43
62847;BME280;49477;35.676;139.586;2023-03-31T04:43:58;101157.28;;;24.22;35.48
62847;BME280;49477;35.676;139.586;2023-03-31T04:46:29;101150.48;;;23.99;35.44
62847;BME280;49477;35.676;139.586;2023-03-31T04:48:59;101148.45;;;24.45;35.51
62847;BME280;49477;35.676;139.586;2023-03-31T04:51:31;101151.10;;;24.00;35.55
62847;BME280;49477;35.676;139.586;2023-03-31T04:54:01;101152.72;;;24.04;35.56
62847;BME280;49477;35.676;139.586;2023-03-31T04:56:31;101145.39;;;24.05;35.56
62847;BME280;49477;35.676;139.586;2023-03-31T04:59:06;101145.23;;;24.33;35.73
62847;BME280;49477;35.676;139.586;2023-03-31T05:01:36;101145.44;;;24.33;35.85
62847;BME280;49477;35.676;139.586;2023-03-31T05:04:05;101141.80;;;24.12;35.95
62847;BME280;49477;35.676;139.586;2023-03-31T05:06:37;101142.25;;;24.64;36.02
62847;BME280;49477;35.676;139.586;2023-03-31T05:09:07;101144.66;;;24.23;35.95
62847;BME280;49477;35.676;139.586;2023-03-31T05:11:37;101135.10;;;24.46;36.10
62847;BME280;49477;35.676;139.586;2023-03-31T05:14:07;101131.33;;;24.23;35.97
62847;BME280;49477;35.676;139.586;2023-03-31T05:16:37;101132.57;;;24.22;36.05
62847;BME280;49477;35.676;139.586;2023-03-31T05:19:13;101136.21;;;24.52;36.15
62847;BME280;49477;35.676;139.586;2023-03-31T05:21:45;101130.89;;;24.28;36.22
62847;BME280;49477;35.676;139.586;2023-03-31T05:24:15;101131.41;;;24.32;36.25
62847;BME280;49477;35.676;139.586;2023-03-31T05:26:46;101135.42;;;24.36;36.16
62847;BME280;49477;35.676;139.586;2023-03-31T05:29:15;101127.82;;;24.40;36.08
62847;BME280;49477;35.676;139.586;2023-03-31T05:31:44;101130.44;;;24.37;36.16
62847;BME280;49477;35.676;139.586;2023-03-31T05:34:17;101128.91;;;24.38;36.07
62847;BME280;49477;35.676;139.586;2023-03-31T05:36:47;101127.55;;;24.35;36.12
62847;BME280;49477;35.676;139.586;2023-03-31T05:39:19;101125.15;;;24.36;36.09
62847;BME280;49477;35.676;139.586;2023-03-31T05:41:49;101126.02;;;24.39;36.01
62847;BME280;49477;35.676;139.586;2023-03-31T05:44:17;101126.05;;;24.41;36.01
62847;BME280;49477;35.676;139.586;2023-03-31T05:46:49;101123.16;;;24.44;35.95
62847;BME280;49477;35.676;139.586;2023-03-31T05:49:19;101112.14;;;24.45;35.91
62847;BME280;49477;35.676;139.586;2023-03-31T05:51:49;101110.90;;;24.47;35.85
62847;BME280;49477;35.676;139.586;2023-03-31T05:54:20;101109.13;;;24.48;35.85
62847;BME280;49477;35.676;139.586;2023-03-31T05:56:49;101111.70;;;24.50;35.83
62847;BME280;49477;35.676;139.586;2023-03-31T05:59:19;101114.95;;;24.53;35.76
62847;BME280;49477;35.676;139.586;2023-03-31T06:01:48;101122.18;;;24.54;35.73
62847;BME280;49477;35.676;139.586;2023-03-31T06:04:18;101120.07;;;24.52;35.78
62847;BME280;49477;35.676;139.586;2023-03-31T06:06:47;101111.02;;;24.54;35.77
62847;BME280;49477;35.676;139.586;2023-03-31T06:09:17;101102.43;;;24.55;35.72
62847;BME280;49477;35.676;139.586;2023-03-31T06:11:49;101096.83;;;24.55;35.74
62847;BME280;49477;35.676;139.586;2023-03-31T06:14:18;101098.52;;;24.58;35.72
62847;BME280;49477;35.676;139.586;2023-03-31T06:16:51;101103.43;;;24.61;35.66
62847;BME280;49477;35.676;139.586;2023-03-31T06:19:20;101096.02;;;24.63;35.66
62847;BME280;49477;35.676;139.586;2023-03-31T06:21:52;101093.08;;;24.89;35.65
62847;BME280;49477;35.676;139.586;2023-03-31T06:24:22;101101.56;;;24.63;35.63
62847;BME280;49477;35.676;139.586;2023-03-31T06:26:51;101109.27;;;24.64;35.62
62847;BME280;49477;35.676;139.586;2023-03-31T06:29:21;101113.31;;;24.43;35.58
62847;BME280;49477;35.676;139.586;2023-03-31T06:31:50;101100.94;;;24.67;35.48
62847;BME280;49477;35.676;139.586;2023-03-31T06:34:20;101088.40;;;24.18;35.45
62847;BME280;49477;35.676;139.586;2023-03-31T06:36:49;101092.67;;;24.68;35.47
62847;BME280;49477;35.676;139.586;2023-03-31T06:39:19;101092.16;;;24.66;35.46
62847;BME280;49477;35.676;139.586;2023-03-31T06:41:48;101092.28;;;24.64;35.44
62847;BME280;49477;35.676;139.586;2023-03-31T06:44:24;101090.50;;;24.63;35.43
62847;BME280;49477;35.676;139.586;2023-03-31T06:46:52;101085.32;;;24.63;35.38
62847;BME280;49477;35.676;139.586;2023-03-31T06:49:25;101085.75;;;24.42;35.31
62847;BME280;49477;35.676;139.586;2023-03-31T06:51:55;101082.17;;;24.64;35.26
62847;BME280;49477;35.676;139.586;2023-03-31T06:54:24;101080.61;;;24.63;35.23
62847;BME280;49477;35.676;139.586;2023-03-31T06:56:53;101079.08;;;24.62;35.14
62847;BME280;49477;35.676;139.586;2023-03-31T06:59:23;101081.88;;;24.62;35.12
62847;BME280;49477;35.676;139.586;2023-03-31T07:01:53;101084.33;;;24.61;35.18
62847;BME280;49477;35.676;139.586;2023-03-31T07:04:22;101081.69;;;24.40;35.02
62847;BME280;49477;35.676;139.586;2023-03-31T07:06:51;101081.50;;;24.61;34.59
62847;BME280;49477;35.676;139.586;2023-03-31T07:09:23;101085.65;;;24.58;34.58
62847;BME280;49477;35.676;139.586;2023-03-31T07:11:52;101080.65;;;24.56;34.63
62847;BME280;49477;35.676;139.586;2023-03-31T07:14:22;101079.39;;;24.39;34.48
62847;BME280;49477;35.676;139.586;2023-03-31T07:16:51;101084.51;;;24.58;34.60
62847;BME280;49477;35.676;139.586;2023-03-31T07:19:21;101083.08;;;24.57;34.59
62847;BME280;49477;35.676;139.586;2023-03-31T07:21:51;101084.38;;;24.54;34.60
62847;BME280;49477;35.676;139.586;2023-03-31T07:24:23;101082.87;;;24.50;34.77
62847;BME280;49477;35.676;139.586;2023-03-31T07:26:52;101088.82;;;24.51;34.87
62847;BME280;49477;35.676;139.586;2023-03-31T07:29:24;101093.26;;;24.50;35.01
62847;BME280;49477;35.676;139.586;2023-03-31T07:31:53;101097.62;;;24.49;35.03
62847;BME280;49477;35.676;139.586;2023-03-31T07:34:23;101093.17;;;24.48;35.14
62847;BME280;49477;35.676;139.586;2023-03-31T07:36:55;101092.60;;;24.45;35.38
62847;BME280;49477;35.676;139.586;2023-03-31T07:39:24;101090.43;;;24.44;35.53
62847;BME280;49477;35.676;139.586;2023-03-31T07:41:54;101082.94;;;24.42;35.65
62847;BME280;49477;35.676;139.586;2023-03-31T07:44:23;101078.63;;;24.39;35.79
62847;BME280;49477;35.676;139.586;2023-03-31T07:46:53;101080.60;;;24.35;35.94
62847;BME280;49477;35.676;139.586;2023-03-31T07:49:22;101079.97;;;24.60;36.02
62847;BME280;49477;35.676;139.586;2023-03-31T07:51:54;101085.47;;;24.31;36.12
62847;BME280;49477;35.676;139.586;2023-03-31T07:54:25;101087.53;;;24.29;36.15
62847;BME280;49477;35.676;139.586;2023-03-31T07:56:56;101085.20;;;24.54;35.84
62847;BME280;49477;35.676;139.586;2023-03-31T07:59:25;101083.55;;;24.27;36.07
62847;BME280;49477;35.676;139.586;2023-03-31T08:01:55;101080.36;;;24.25;36.22
62847;BME280;49477;35.676;139.586;2023-03-31T08:04:26;101080.18;;;24.23;36.29
62847;BME280;49477;35.676;139.586;2023-03-31T08:06:56;101077.08;;;24.23;36.31
62847;BME280;49477;35.676;139.586;2023-03-31T08:09:30;101076.24;;;24.23;36.39
62847;BME280;49477;35.676;139.586;2023-03-31T08:11:59;101072.31;;;24.25;36.03
62847;BME280;49477;35.676;139.586;2023-03-31T08:14:28;101075.37;;;24.21;36.59
62847;BME280;49477;35.676;139.586;2023-03-31T08:16:58;101072.27;;;24.18;36.64
62847;BME280;49477;35.676;139.586;2023-03-31T08:19:27;101073.43;;;24.68;36.87
62847;BME280;49477;35.676;139.586;2023-03-31T08:21:57;101070.83;;;24.15;36.98
62847;BME280;49477;35.676;139.586;2023-03-31T08:24:26;101063.75;;;24.38;37.16
62847;BME280;49477;35.676;139.586;2023-03-31T08:26:56;101062.86;;;24.06;37.36
62847;BME280;49477;35.676;139.586;2023-03-31T08:29:25;101058.85;;;24.05;37.31
62847;BME280;49477;35.676;139.586;2023-03-31T08:31:55;101059.90;;;24.01;37.14
62847;BME280;49477;35.676;139.586;2023-03-31T08:34:24;101060.41;;;24.03;37.43
62847;BME280;49477;35.676;139.586;2023-03-31T08:36:54;101058.79;;;24.48;37.46
62847;BME280;49477;35.676;139.586;2023-03-31T08:39:23;101056.95;;;24.42;37.37
62847;BME280;49477;35.676;139.586;2023-03-31T08:41:57;101051.47;;;24.38;37.53
62847;BME280;49477;35.676;139.586;2023-03-31T08:44:31;101054.59;;;24.11;37.72
62847;BME280;49477;35.676;139.586;2023-03-31T08:47:06;101055.08;;;24.10;37.68
62847;BME280;49477;35.676;139.586;2023-03-31T08:49:40;101054.73;;;24.07;37.73
62847;BME280;49477;35.676;139.586;2023-03-31T08:52:14;101052.04;;;24.04;37.72
62847;BME280;49477;35.676;139.586;2023-03-31T08:54:47;101053.01;;;24.01;37.74
62847;BME280;49477;35.676;139.586;2023-03-31T08:57:24;101055.24;;;24.20;37.83
62847;BME280;49477;35.676;139.586;2023-03-31T08:59:54;101054.26;;;24.16;37.83
62847;BME280;49477;35.676;139.586;2023-03-31T09:02:30;101050.18;;;23.89;37.66
62847;BME280;49477;35.676;139.586;2023-03-31T09:05:29;101050.06;;;24.08;37.81
62847;BME280;49477;35.676;139.586;2023-03-31T09:08:10;101046.80;;;24.05;37.74
62847;BME280;49477;35.676;139.586;2023-03-31T09:10:47;101048.15;;;24.05;37.71
62847;BME280;49477;35.676;139.586;2023-03-31T09:13:32;101045.76;;;23.84;36.19
62847;BME280;49477;35.676;139.586;2023-03-31T09:16:10;101045.68;;;23.77;35.65
62847;BME280;49477;35.676;139.586;2023-03-31T09:18:42;101044.16;;;23.69;35.66
62847;BME280;49477;35.676;139.586;2023-03-31T09:21:15;101046.26;;;23.39;35.61
62847;BME280;49477;35.676;139.586;2023-03-31T09:23:51;101046.24;;;23.58;35.41
62847;BME280;49477;35.676;139.586;2023-03-31T09:26:26;101052.45;;;23.77;36.00
62847;BME280;49477;35.676;139.586;2023-03-31T09:29:00;101052.99;;;23.50;35.68
62847;BME280;49477;35.676;139.586;2023-03-31T09:31:32;101055.90;;;23.59;37.13
62847;BME280;49477;35.676;139.586;2023-03-31T09:34:09;101054.26;;;23.57;37.48
62847;BME280;49477;35.676;139.586;2023-03-31T09:36:40;101057.13;;;23.57;37.69
62847;BME280;49477;35.676;139.586;2023-03-31T09:39:13;101063.54;;;23.75;37.91
62847;BME280;49477;35.676;139.586;2023-03-31T09:41:45;101062.78;;;23.78;38.23
62847;BME280;49477;35.676;139.586;2023-03-31T09:44:24;101066.75;;;23.56;38.24
62847;BME280;49477;35.676;139.586;2023-03-31T09:46:55;101067.20;;;23.52;38.93
62847;BME280;49477;35.676;139.586;2023-03-31T09:49:30;101068.23;;;23.53;39.19
62847;BME280;49477;35.676;139.586;2023-03-31T09:52:05;101070.31;;;23.31;39.04
62847;BME280;49477;35.676;139.586;2023-03-31T09:54:39;101070.83;;;23.73;39.16
62847;BME280;49477;35.676;139.586;2023-03-31T09:57:25;101072.79;;;23.50;39.47
62847;BME280;49477;35.676;139.586;2023-03-31T10:00:02;101073.54;;;23.72;39.16
62847;BME280;49477;35.676;139.586;2023-03-31T10:02:37;101073.56;;;23.70;39.18
62847;BME280;49477;35.676;139.586;2023-03-31T10:05:16;101074.88;;;23.47;39.16
62847;BME280;49477;35.676;139.586;2023-03-31T10:07:47;101077.97;;;23.66;39.25
62847;BME280;49477;35.676;139.586;2023-03-31T10:10:27;101080.82;;;23.41;39.20
62847;BME280;49477;35.676;139.586;2023-03-31T10:13:13;101085.01;;;23.42;39.15
62847;BME280;49477;35.676;139.586;2023-03-31T10:15:44;101085.21;;;23.40;39.13
62847;BME280;49477;35.676;139.586;2023-03-31T10:18:15;101087.53;;;23.61;39.14
62847;BME280;49477;35.676;139.586;2023-03-31T10:20:49;101086.31;;;23.57;39.15
62847;BME280;49477;35.676;139.586;2023-03-31T10:23:26;101085.09;;;23.34;39.20
62847;BME280;49477;35.676;139.586;2023-03-31T10:25:56;101084.29;;;23.32;39.30
62847;BME280;49477;35.676;139.586;2023-03-31T10:28:27;101084.92;;;23.77;39.39
62847;BME280;49477;35.676;139.586;2023-03-31T10:31:00;101084.55;;;23.27;39.42
62847;BME280;49477;35.676;139.586;2023-03-31T10:33:31;101083.02;;;23.50;39.01
62847;BME280;49477;35.676;139.586;2023-03-31T10:36:06;101082.11;;;23.48;38.70
62847;BME280;49477;35.676;139.586;2023-03-31T10:38:38;101082.04;;;23.44;38.66
62847;BME280;49477;35.676;139.586;2023-03-31T10:41:10;101081.66;;;23.41;38.56
62847;BME280;49477;35.676;139.586;2023-03-31T10:43:41;101081.94;;;23.12;38.51
62847;BME280;49477;35.676;139.586;2023-03-31T10:46:12;101084.81;;;23.30;38.47
62847;BME280;49477;35.676;139.586;2023-03-31T10:48:42;101087.40;;;23.06;38.59
62847;BME280;49477;35.676;139.586;2023-03-31T10:51:15;101087.38;;;23.24;38.46
62847;BME280;49477;35.676;139.586;2023-03-31T10:53:46;101088.83;;;23.20;38.47
62847;BME280;49477;35.676;139.586;2023-03-31T10:56:33;101097.21;;;23.15;38.45
62847;BME280;49477;35.676;139.586;2023-03-31T10:59:24;101097.76;;;23.14;38.43
62847;BME280;49477;35.676;139.586;2023-03-31T11:02:12;101098.66;;;22.89;38.39
62847;BME280;49477;35.676;139.586;2023-03-31T11:04:52;101098.44;;;23.10;38.50
62847;BME280;49477;35.676;139.586;2023-03-31T11:07:40;101100.02;;;22.85;38.48
62847;BME280;49477;35.676;139.586;2023-03-31T11:10:27;101099.90;;;23.04;38.49
62847;BME280;49477;35.676;139.586;2023-03-31T11:13:01;101103.53;;;23.28;38.43
62847;BME280;49477;35.676;139.586;2023-03-31T11:15:37;101103.55;;;22.99;38.52
62847;BME280;49477;35.676;139.586;2023-03-31T11:18:21;101105.29;;;22.95;38.46
62847;BME280;49477;35.676;139.586;2023-03-31T11:21:04;101102.84;;;22.91;38.56
62847;BME280;49477;35.676;139.586;2023-03-31T11:23:41;101105.44;;;23.18;38.36
62847;BME280;49477;35.676;139.586;2023-03-31T11:26:14;101105.52;;;23.18;38.46
62847;BME280;49477;35.676;139.586;2023-03-31T11:28:57;101104.83;;;23.14;38.27
62847;BME280;49477;35.676;139.586;2023-03-31T11:31:36;101110.17;;;23.13;38.26
62847;BME280;49477;35.676;139.586;2023-03-31T11:34:22;101107.34;;;23.10;38.28
62847;BME280;49477;35.676;139.586;2023-03-31T11:37:11;101112.42;;;23.09;38.18
62847;BME280;49477;35.676;139.586;2023-03-31T11:39:52;101114.79;;;23.08;38.26
62847;BME280;49477;35.676;139.586;2023-03-31T11:42:27;101114.74;;;22.75;38.11
62847;BME280;49477;35.676;139.586;2023-03-31T11:44:59;101115.43;;;22.75;38.16
62847;BME280;49477;35.676;139.586;2023-03-31T11:47:32;101116.52;;;23.00;38.12
62847;BME280;49477;35.676;139.586;2023-03-31T11:50:10;101117.86;;;22.98;38.12
62847;BME280;49477;35.676;139.586;2023-03-31T11:52:42;101114.52;;;22.93;38.13
62847;BME280;49477;35.676;139.586;2023-03-31T11:55:17;101117.56;;;22.91;38.21
62847;BME280;49477;35.676;139.586;2023-03-31T11:57:52;101115.27;;;22.62;38.10
62847;BME280;49477;35.676;139.586;2023-03-31T12:00:28;101113.80;;;22.83;38.09
62847;BME280;49477;35.676;139.586;2023-03-31T12:03:02;101113.51;;;22.83;38.11
62847;BME280;49477;35.676;139.586;2023-03-31T12:05:35;101116.59;;;22.54;38.36
62847;BME280;49477;35.676;139.586;2023-03-31T12:08:09;101117.00;;;22.54;38.50
62847;BME280;49477;35.676;139.586;2023-03-31T12:10:44;101120.38;;;22.80;38.57
62847;BME280;49477;35.676;139.586;2023-03-31T12:13:32;101124.08;;;22.77;38.51
62847;BME280;49477;35.676;139.586;2023-03-31T12:16:09;101122.81;;;22.77;38.54
62847;BME280;49477;35.676;139.586;2023-03-31T12:18:43;101123.94;;;22.77;38.58
62847;BME280;49477;35.676;139.586;2023-03-31T12:21:15;101121.07;;;22.75;38.59
62847;BME280;49477;35.676;139.586;2023-03-31T12:23:45;101121.18;;;22.74;38.54
62847;BME280;49477;35.676;139.586;2023-03-31T12:26:27;101121.53;;;22.70;38.64
62847;BME280;49477;35.676;139.586;2023-03-31T12:29:04;101123.40;;;22.68;38.61
62847;BME280;49477;35.676;139.586;2023-03-31T12:31:36;101121.21;;;22.67;38.60
62847;BME280;49477;35.676;139.586;2023-03-31T12:34:13;101120.92;;;22.36;38.63
62847;BME280;49477;35.676;139.586;2023-03-31T12:36:54;101119.79;;;22.61;38.63
62847;BME280;49477;35.676;139.586;2023-03-31T12:39:36;101121.44;;;22.58;38.70
62847;BME280;49477;35.676;139.586;2023-03-31T12:42:24;101120.53;;;22.56;38.61
62847;BME280;49477;35.676;139.586;2023-03-31T12:45:06;101121.69;;;22.53;38.67
62847;BME280;49477;35.676;139.586;2023-03-31T12:47:52;101120.79;;;22.51;38.97
62847;BME280;49477;35.676;139.586;2023-03-31T12:50:36;101121.28;;;22.48;39.33
62847;BME280;49477;35.676;139.586;2023-03-31T12:53:17;101121.91;;;22.48;39.42
62847;BME280;49477;35.676;139.586;2023-03-31T12:55:55;101119.56;;;22.44;39.64
62847;BME280;49477;35.676;139.586;2023-03-31T12:58:43;101120.32;;;22.43;39.80
62847;BME280;49477;35.676;139.586;2023-03-31T13:01:15;101122.83;;;22.41;40.00
62847;BME280;49477;35.676;139.586;2023-03-31T13:03:48;101120.17;;;22.37;40.08
62847;BME280;49477;35.676;139.586;2023-03-31T13:08:52;101116.74;;;22.87;40.32